No2 Toyomaru — JD2874 — position and weather

sailwx.info

Track history (hours):
 
Tides and Currents Weather Stations Pressure Air Temp Water Temp Dewpoint Dewpoint Depression Visibility Wind Speed Wind Dir Waves Ship Positions

No2 Toyomaru

Last reported at 2017-Dec-17 15:34 UTC. Time now 2017-Dec-17 21:51 UTC.
Position N 34°19' E 137°57'.

Length 124 m; draft 6.5 m.

Type: Cargo ship. MMSI: 431000859.

Date/timePositionNaut miles runAvg speedWind from/ knotsBaromVisibWave heightAir tempDewpointWater temp
2017-Dec-17 15:34N 34°19' E 137°57'116.8
2017-Dec-17 15:30N 34°20' E 137°58'916.3
2017-Dec-17 14:58N 34°23' E 138°08'715.4
2017-Dec-17 14:30N 34°25' E 138°16'714.6
2017-Dec-17 14:00N 34°27' E 138°25'814.5
2017-Dec-17 13:29N 34°28' E 138°34'815.2
2017-Dec-17 12:57N 34°30' E 138°43'715.6
2017-Dec-17 12:30N 34°31' E 138°52'815.2
2017-Dec-17 11:59N 34°34' E 139°01'916.2
2017-Dec-17 11:27N 34°40' E 139°08'815.8
2017-Dec-17 10:57N 34°45' E 139°15'816.3
2017-Dec-17 10:29N 34°51' E 139°22'817.5
2017-Dec-17 10:01N 34°56' E 139°30'917.3
2017-Dec-17 09:31N 35°02' E 139°37'917.6
2017-Dec-17 09:01N 35°09' E 139°44'714.4
2017-Dec-17 08:30N 35°16' E 139°46'713.6
2017-Dec-17 08:01N 35°22' E 139°42'917.2
2017-Dec-17 07:30N 35°28' E 139°50'917.8
2017-Dec-17 07:01N 35°33' E 139°59'713.1
2017-Dec-17 06:30N 35°36' E 140°06'0 0.5
2017-Dec-17 06:00N 35°36' E 140°06'0 0.0
2017-Dec-17 05:30N 35°36' E 140°06'1 2.4
2017-Dec-17 05:00N 35°37' E 140°05'0 0.3
2017-Dec-17 04:30N 35°37' E 140°05'0 0.0
2017-Dec-17 03:58N 35°37' E 140°05'0 0.0
2017-Dec-17 03:28N 35°37' E 140°05'0 0.0
2017-Dec-17 02:58N 35°37' E 140°05'0 0.0
2017-Dec-17 02:28N 35°37' E 140°05'0 0.0
2017-Dec-17 01:58N 35°37' E 140°05'0 0.0
2017-Dec-17 01:28N 35°37' E 140°05'0 0.0
2017-Dec-17 00:58N 35°37' E 140°05'0 0.0
2017-Dec-17 00:28N 35°37' E 140°05'0 0.0
2017-Dec-16 23:58N 35°37' E 140°05'0 0.0
2017-Dec-16 23:30N 35°37' E 140°05'1 2.6
2017-Dec-16 23:00N 35°35' E 140°06'1 1.4
2017-Dec-16 22:30N 35°36' E 140°06'0 0.0
2017-Dec-16 22:00N 35°36' E 140°06'0 0.0
2017-Dec-16 21:30N 35°36' E 140°06'0 0.0
2017-Dec-16 21:00N 35°36' E 140°06'0 0.5
2017-Dec-16 20:31N 35°36' E 140°06'4 8.3
2017-Dec-16 20:01N 35°34' E 140°01'1 2.4
2017-Dec-16 19:26N 35°35' E 139°60'0 0.1
2017-Dec-16 18:59N 35°35' E 139°60'0 0.0
2017-Dec-16 18:29N 35°35' E 139°60'0 0.0
2017-Dec-16 17:59N 35°35' E 139°60'0 0.1
2017-Dec-16 17:29N 35°35' E 139°60'0 0.0
2017-Dec-16 16:59N 35°35' E 139°60'0 0.0
2017-Dec-16 16:29N 35°35' E 139°60'0 0.0
2017-Dec-16 15:59N 35°35' E 139°60'0 0.0
2017-Dec-16 15:29N 35°35' E 139°60'0 0.0
2017-Dec-16 14:59N 35°35' E 139°60'0 0.0
2017-Dec-16 14:29N 35°35' E 139°60'0 0.0
2017-Dec-16 13:59N 35°35' E 139°60'0 0.0
2017-Dec-16 13:29N 35°35' E 139°60'0 0.0
2017-Dec-16 12:59N 35°35' E 139°60'0 0.0
2017-Dec-16 12:29N 35°35' E 139°60'0 0.0
2017-Dec-16 11:59N 35°35' E 139°60'0 0.2
2017-Dec-16 11:30N 35°35' E 139°60'612.3
2017-Dec-16 11:01N 35°31' E 139°54'816.3
2017-Dec-16 10:31N 35°25' E 139°47'713.0
2017-Dec-16 10:00N 35°19' E 139°44'612.3
2017-Dec-16 09:31N 35°13' E 139°47'816.4
2017-Dec-16 09:00N 35°05' E 139°43'918.5
2017-Dec-16 08:30N 34°59' E 139°34'918.6
2017-Dec-16 08:01N 34°53' E 139°26'919.0
2017-Dec-16 07:31N 34°47' E 139°17'918.5
2017-Dec-16 07:01N 34°41' E 139°09'917.2
2017-Dec-16 06:31N 34°35' E 139°01'917.3
2017-Dec-16 06:01N 34°31' E 138°52'1018.6
2017-Dec-16 05:29N 34°29' E 138°40'918.3
2017-Dec-16 04:59N 34°27' E 138°30'918.1
2017-Dec-16 04:30N 34°25' E 138°19'917.6
2017-Dec-16 04:00N 34°23' E 138°09'1017.7
2017-Dec-16 03:27N 34°19' E 137°58'13616.3
2017-Dec-15 19:05N 33°29' E 135°25'116.1
2017-Dec-15 19:00N 33°30' E 135°24'916.3
2017-Dec-15 18:26N 33°35' E 135°15'1317.9
2017-Dec-15 17:40N 33°46' E 135°05'417.5
2017-Dec-15 17:25N 33°49' E 135°02'717.9
2017-Dec-15 17:00N 33°55' E 134°56'917.9
2017-Dec-15 16:30N 34°02' E 134°50'1017.9
2017-Dec-15 15:58N 34°09' E 134°42'817.5
2017-Dec-15 15:30N 34°16' E 134°36'918.0
2017-Dec-15 15:00N 34°20' E 134°26'918.3
2017-Dec-15 14:30N 34°23' E 134°16'7716.0
2017-Dec-15 09:42N 34°07' E 132°45'418.3
2017-Dec-15 09:30N 34°06' E 132°41'918.0
2017-Dec-15 09:01N 34°02' E 132°32'916.5
2017-Dec-15 08:28N 34°08' E 132°24'816.5
2017-Dec-15 08:01N 34°15' E 132°22'814.7
2017-Dec-15 07:29N 34°21' E 132°28'1 1.2
2017-Dec-15 07:01N 34°21' E 132°29'0 0.0
2017-Dec-15 06:28N 34°21' E 132°29'0 0.0
2017-Dec-15 05:55N 34°21' E 132°29'0 0.0
2017-Dec-15 05:28N 34°21' E 132°29'0 0.0
2017-Dec-15 04:58N 34°21' E 132°29'0 0.0
2017-Dec-15 04:28N 34°21' E 132°29'0 0.0
2017-Dec-15 03:58N 34°21' E 132°29'6 4.0
2017-Dec-15 02:30N 34°21' E 132°22'6 4.2
2017-Dec-15 01:00N 34°21' E 132°30'1 2.0
2017-Dec-15 00:29N 34°21' E 132°31'0 0.0
2017-Dec-14 18:29N 34°21' E 132°31'0 0.0
2017-Dec-14 17:59N 34°21' E 132°31'0 0.0
2017-Dec-14 17:29N 34°21' E 132°31'0 0.0
2017-Dec-14 16:59N 34°21' E 132°31'0 0.0
2017-Dec-14 16:29N 34°21' E 132°31'1 2.8
2017-Dec-14 16:01N 34°21' E 132°29'1414.0
2017-Dec-14 15:00N 34°08' E 132°22'1115.1
2017-Dec-14 14:17N 34°02' E 132°34'518.9
2017-Dec-14 14:00N 34°05' E 132°39'6416.7
2017-Dec-14 10:09N 34°25' E 133°53'12 3.0
2017-Dec-14 05:57N 34°26' E 134°08'817.9
2017-Dec-14 05:29N 34°23' E 134°18'817.3
2017-Dec-14 05:00N 34°19' E 134°26'917.5
2017-Dec-14 04:30N 34°16' E 134°36'815.1
2017-Dec-14 03:57N 34°10' E 134°43'816.5
2017-Dec-14 03:27N 34°03' E 134°49'816.8
2017-Dec-14 02:58N 33°57' E 134°56'816.2
2017-Dec-14 02:30N 33°51' E 135°02'14315.5
2017-Dec-13 17:16N 34°18' E 137°52'516.4
2017-Dec-13 16:58N 34°20' E 137°57'816.2
2017-Dec-13 16:29N 34°22' E 138°06'815.6
2017-Dec-13 15:58N 34°25' E 138°15'714.6
2017-Dec-13 15:30N 34°26' E 138°23'714.0
2017-Dec-13 15:00N 34°28' E 138°32'714.0
2017-Dec-13 14:29N 34°29' E 138°40'1015.0
2017-Dec-13 13:49N 34°31' E 138°52'516.0
2017-Dec-13 13:30N 34°32' E 138°58'816.3
2017-Dec-13 13:00N 34°37' E 139°06'917.2
2017-Dec-13 12:28N 34°44' E 139°13'1416.2
2017-Dec-13 11:35N 34°54' E 139°26'216.5
2017-Dec-13 11:28N 34°55' E 139°28'816.5
2017-Dec-13 11:00N 35°00' E 139°35'917.9
2017-Dec-13 10:30N 35°06' E 139°43'815.8
2017-Dec-13 10:01N 35°14' E 139°46'612.4
2017-Dec-13 09:30N 35°19' E 139°43'612.9
2017-Dec-13 09:00N 35°25' E 139°45'918.3
2017-Dec-13 08:31N 35°31' E 139°54'917.4
2017-Dec-13 08:01N 35°35' E 140°03'3 5.0
2017-Dec-13 07:30N 35°36' E 140°06'0 0.0
2017-Dec-13 07:00N 35°36' E 140°06'0 0.0
2017-Dec-13 06:30N 35°36' E 140°06'1 2.6
2017-Dec-13 06:01N 35°37' E 140°05'0 0.0
2017-Dec-13 05:28N 35°37' E 140°05'0 0.0
2017-Dec-13 04:58N 35°37' E 140°05'0 0.0
2017-Dec-13 04:28N 35°37' E 140°05'0 0.0
2017-Dec-13 03:58N 35°37' E 140°05'0 0.0
2017-Dec-13 03:28N 35°37' E 140°05'0 0.0
2017-Dec-13 02:58N 35°37' E 140°05'0 0.0
2017-Dec-13 02:28N 35°37' E 140°05'0 0.0
2017-Dec-13 01:58N 35°37' E 140°05'0 0.0
2017-Dec-13 01:28N 35°37' E 140°05'0 0.0
2017-Dec-13 00:58N 35°37' E 140°05'0 0.0
2017-Dec-13 00:28N 35°37' E 140°05'0 0.0
2017-Dec-12 23:58N 35°37' E 140°05'0 0.0
2017-Dec-12 23:28N 35°37' E 140°05'1 2.3
2017-Dec-12 23:00N 35°36' E 140°05'1 1.9
2017-Dec-12 22:30N 35°36' E 140°06'0 0.0
2017-Dec-12 22:00N 35°36' E 140°06'0 0.0
2017-Dec-12 21:30N 35°36' E 140°06'0 0.0
2017-Dec-12 21:00N 35°36' E 140°06'0 0.3
2017-Dec-12 20:30N 35°36' E 140°06'5 9.7
2017-Dec-12 20:00N 35°34' E 140°01'816.9
2017-Dec-12 19:30N 35°29' E 139°52'815.0
2017-Dec-12 19:00N 35°23' E 139°46'611.1
2017-Dec-12 18:31N 35°18' E 139°45'611.9
2017-Dec-12 18:00N 35°12' E 139°47'816.2
2017-Dec-12 17:30N 35°04' E 139°46'917.4
2017-Dec-12 16:59N 34°57' E 139°39'5 9.6
2017-Dec-12 16:30N 34°55' E 139°34'3 5.2
2017-Dec-12 15:59N 34°53' E 139°33'918.7
2017-Dec-12 15:30N 34°50' E 139°22'918.5
2017-Dec-12 15:00N 34°44' E 139°14'1019.0
2017-Dec-12 14:30N 34°36' E 139°06'919.0
2017-Dec-12 14:00N 34°30' E 138°58'1019.0
2017-Dec-12 13:30N 34°31' E 138°46'1019.2
2017-Dec-12 12:58N 34°31' E 138°33'918.4
2017-Dec-12 12:30N 34°31' E 138°23'918.2
2017-Dec-12 12:00N 34°32' E 138°12'1018.8
2017-Dec-12 11:28N 34°32' E 138°00'918.6
2017-Dec-12 11:00N 34°32' E 137°49'2218.5
2017-Dec-12 09:50N 34°32' E 137°23'618.7
2017-Dec-12 09:30N 34°32' E 137°16'1018.5
2017-Dec-12 08:56N 34°32' E 137°03'613.7
2017-Dec-12 08:30N 34°36' E 136°58'918.0
2017-Dec-12 08:00N 34°45' E 136°59'714.5
2017-Dec-12 07:30N 34°52' E 136°58'2 3.8
2017-Dec-12 07:00N 34°54' E 136°59'0 0.0
2017-Dec-12 06:28N 34°54' E 136°59'0 0.0
2017-Dec-12 05:58N 34°54' E 136°59'0 0.0
2017-Dec-12 05:28N 34°54' E 136°59'0 0.0
2017-Dec-12 04:58N 34°54' E 136°59'0 0.0
2017-Dec-12 04:28N 34°54' E 136°59'0 0.0
2017-Dec-12 03:58N 34°54' E 136°59'1 1.2
2017-Dec-12 03:30N 34°54' E 136°58'612.2
2017-Dec-12 03:01N 34°48' E 136°57'816.0
2017-Dec-12 02:30N 34°40' E 136°59'711.2
2017-Dec-12 01:50N 34°33' E 137°02'2817.2
2017-Dec-12 00:11N 34°07' E 136°48'417.3
2017-Dec-11 23:59N 34°04' E 136°44'7515.4
2017-Dec-11 19:08N 33°30' E 135°24'2018.0
2017-Dec-11 18:01N 33°44' E 135°08'118.7
2017-Dec-11 17:59N 33°44' E 135°07'918.5
2017-Dec-11 17:30N 33°51' E 135°00'918.3
2017-Dec-11 17:00N 33°58' E 134°53'918.2
2017-Dec-11 16:30N 34°06' E 134°47'917.9
2017-Dec-11 16:00N 34°13' E 134°40'816.9
2017-Dec-11 15:30N 34°17' E 134°32'918.2
2017-Dec-11 15:00N 34°21' E 134°22'1118.5
2017-Dec-11 14:25N 34°25' E 134°10'7415.7
2017-Dec-11 09:45N 34°06' E 132°44'417.8
2017-Dec-11 09:31N 34°04' E 132°39'815.1
2017-Dec-11 08:58N 34°04' E 132°29'817.8
2017-Dec-11 08:30N 34°10' E 132°22'816.7
2017-Dec-11 08:00N 34°18' E 132°24'510.3
2017-Dec-11 07:30N 34°21' E 132°29'0 0.0
2017-Dec-11 06:59N 34°21' E 132°29'0 0.0
2017-Dec-11 06:29N 34°21' E 132°29'0 0.0
2017-Dec-11 05:59N 34°21' E 132°29'0 0.0
2017-Dec-11 05:29N 34°21' E 132°29'0 0.0
2017-Dec-11 04:59N 34°21' E 132°29'0 0.0
2017-Dec-11 04:29N 34°21' E 132°29'0 0.0
2017-Dec-11 03:59N 34°21' E 132°29'3 5.6
2017-Dec-11 03:31N 34°20' E 132°26'4 7.5
2017-Dec-11 03:00N 34°21' E 132°22'0 0.0
2017-Dec-11 02:28N 34°21' E 132°22'0 0.0
2017-Dec-11 02:00N 34°21' E 132°22'3 6.9
2017-Dec-11 01:30N 34°20' E 132°26'4 8.8
2017-Dec-11 01:01N 34°21' E 132°31'0 0.0
2017-Dec-11 00:29N 34°21' E 132°31'0 0.0
2017-Dec-10 23:59N 34°21' E 132°31'0 0.0
2017-Dec-10 23:29N 34°21' E 132°31'0 0.0
2017-Dec-10 22:59N 34°21' E 132°31'0 0.0
2017-Dec-10 22:29N 34°21' E 132°31'0 0.0
2017-Dec-10 21:56N 34°21' E 132°31'0 0.0
2017-Dec-10 21:29N 34°21' E 132°31'0 0.0
2017-Dec-10 20:59N 34°21' E 132°31'0 0.0
2017-Dec-10 20:29N 34°21' E 132°31'0 0.0
2017-Dec-10 19:59N 34°21' E 132°31'0 0.0
2017-Dec-10 19:29N 34°21' E 132°31'0 0.0
2017-Dec-10 18:56N 34°21' E 132°31'0 0.0
2017-Dec-10 18:29N 34°21' E 132°31'0 0.0
2017-Dec-10 17:59N 34°21' E 132°31'0 0.0
2017-Dec-10 17:29N 34°21' E 132°31'0 0.0
2017-Dec-10 16:59N 34°21' E 132°31'0 0.3
2017-Dec-10 16:30N 34°21' E 132°31'611.1
2017-Dec-10 16:00N 34°19' E 132°25'917.2
2017-Dec-10 15:31N 34°10' E 132°21'916.9
2017-Dec-10 14:58N 34°04' E 132°29'614.0
2017-Dec-10 14:31N 34°04' E 132°37'917.2
2017-Dec-10 14:00N 34°08' E 132°46'917.3
2017-Dec-10 13:28N 34°10' E 132°57'50 9.9
2017-Dec-10 08:24N 34°25' E 133°55'3 1.9
2017-Dec-10 06:55N 34°26' E 133°58'914.9
2017-Dec-10 06:21N 34°26' E 134°09'617.9
2017-Dec-10 06:00N 34°24' E 134°16'918.1
2017-Dec-10 05:30N 34°20' E 134°26'918.1
2017-Dec-10 05:00N 34°16' E 134°36'1017.8
2017-Dec-10 04:26N 34°09' E 134°44'818.1
2017-Dec-10 04:00N 34°03' E 134°50'918.1
2017-Dec-10 03:30N 33°56' E 134°57'14015.6
2017-Dec-09 18:31N 34°16' E 137°44'617.8
2017-Dec-09 18:11N 34°18' E 137°51'317.3
2017-Dec-09 18:00N 34°19' E 137°55'917.1
2017-Dec-09 17:30N 34°22' E 138°04'816.3
2017-Dec-09 17:00N 34°25' E 138°14'815.6
2017-Dec-09 16:29N 34°27' E 138°23'815.2
2017-Dec-09 15:57N 34°28' E 138°33'715.1
2017-Dec-09 15:28N 34°29' E 138°41'814.7
2017-Dec-09 14:54N 34°31' E 138°51'614.1
2017-Dec-09 14:30N 34°32' E 138°58'915.3
2017-Dec-09 13:57N 34°38' E 139°06'915.4
2017-Dec-09 13:22N 34°44' E 139°14'616.0
2017-Dec-09 13:00N 34°48' E 139°19'815.9
2017-Dec-09 12:29N 34°54' E 139°26'817.1
2017-Dec-09 12:00N 34°59' E 139°33'816.9
2017-Dec-09 11:30N 35°05' E 139°41'816.7
2017-Dec-09 11:00N 35°12' E 139°46'612.2
2017-Dec-09 10:31N 35°18' E 139°44'714.0
2017-Dec-09 10:00N 35°25' E 139°44'917.5
2017-Dec-09 09:30N 35°30' E 139°53'917.2
2017-Dec-09 09:01N 35°35' E 140°02'4 7.3
2017-Dec-09 08:31N 35°36' E 140°06'0 0.0
2017-Dec-09 08:01N 35°36' E 140°06'0 0.0
2017-Dec-09 07:30N 35°36' E 140°06'0 0.0
2017-Dec-09 07:00N 35°36' E 140°06'0 0.0
2017-Dec-09 06:30N 35°36' E 140°06'1 1.2
2017-Dec-09 06:00N 35°35' E 140°06'1 2.6
2017-Dec-09 05:30N 35°37' E 140°05'0 0.0
2017-Dec-09 05:00N 35°37' E 140°05'0 0.0
2017-Dec-09 04:30N 35°37' E 140°05'0 0.0
2017-Dec-09 04:00N 35°37' E 140°05'0 0.0
2017-Dec-09 03:30N 35°37' E 140°05'0 0.0
2017-Dec-09 03:00N 35°37' E 140°05'0 0.0
2017-Dec-09 02:30N 35°37' E 140°05'0 0.0
2017-Dec-09 02:00N 35°37' E 140°05'0 0.0
2017-Dec-09 01:30N 35°37' E 140°05'0 0.0
2017-Dec-09 01:00N 35°37' E 140°05'0 0.0
2017-Dec-09 00:30N 35°37' E 140°05'0 0.0
2017-Dec-09 00:00N 35°37' E 140°05'0 0.0
2017-Dec-08 23:30N 35°37' E 140°05'1 2.2
2017-Dec-08 23:01N 35°36' E 140°05'1 1.9
2017-Dec-08 22:30N 35°36' E 140°06'0 0.0
2017-Dec-08 22:00N 35°36' E 140°06'0 0.0
2017-Dec-08 21:30N 35°36' E 140°06'0 0.0
2017-Dec-08 21:00N 35°36' E 140°06'0 0.2
2017-Dec-08 20:30N 35°36' E 140°06'5 9.2
2017-Dec-08 20:01N 35°34' E 140°01'816.2
2017-Dec-08 19:30N 35°29' E 139°53'815.4
2017-Dec-08 19:00N 35°24' E 139°46'612.2
2017-Dec-08 18:30N 35°18' E 139°45'612.4
2017-Dec-08 18:01N 35°12' E 139°47'816.3
2017-Dec-08 17:30N 35°04' E 139°44'816.1
2017-Dec-08 17:00N 34°57' E 139°39'713.6
2017-Dec-08 16:30N 34°56' E 139°31'918.2
2017-Dec-08 16:00N 34°51' E 139°22'918.3
2017-Dec-08 15:30N 34°45' E 139°14'918.2
2017-Dec-08 15:00N 34°39' E 139°05'918.1
2017-Dec-08 14:30N 34°33' E 138°57'917.0
2017-Dec-08 14:00N 34°32' E 138°47'917.9
2017-Dec-08 13:29N 34°32' E 138°35'918.6
2017-Dec-08 12:58N 34°32' E 138°24'917.9
2017-Dec-08 12:28N 34°32' E 138°13'918.1
2017-Dec-08 11:59N 34°32' E 138°02'917.6
2017-Dec-08 11:29N 34°32' E 137°52'2317.8
2017-Dec-08 10:12N 34°32' E 137°24'318.0
2017-Dec-08 10:00N 34°32' E 137°20'917.5
2017-Dec-08 09:30N 34°32' E 137°09'714.3
2017-Dec-08 09:00N 34°34' E 137°00'510.7
2017-Dec-08 08:30N 34°39' E 136°58'817.0
2017-Dec-08 08:00N 34°47' E 136°58'713.1
2017-Dec-08 07:30N 34°53' E 136°58'1 1.2
2017-Dec-08 06:59N 34°54' E 136°59'0 0.0
2017-Dec-08 06:29N 34°54' E 136°59'0 0.0
2017-Dec-08 05:56N 34°54' E 136°59'0 0.0
2017-Dec-08 05:29N 34°54' E 136°59'0 0.0
2017-Dec-08 04:59N 34°54' E 136°59'0 0.0
2017-Dec-08 04:29N 34°54' E 136°59'2 5.2
2017-Dec-08 04:00N 34°52' E 136°57'714.3
2017-Dec-08 03:30N 34°45' E 136°59'815.6
2017-Dec-08 02:58N 34°36' E 136°58'3014.7
2017-Dec-08 00:53N 34°07' E 136°48'816.4
2017-Dec-08 00:25N 34°02' E 136°41'7115.7
2017-Dec-07 19:53N 33°29' E 135°24'816.4
2017-Dec-07 19:24N 33°34' E 135°17'1618.3
2017-Dec-07 18:32N 33°47' E 135°05'117.9
2017-Dec-07 18:30N 33°47' E 135°05'918.2
2017-Dec-07 18:00N 33°54' E 134°58'918.5
2017-Dec-07 17:30N 34°01' E 134°51'918.6
2017-Dec-07 17:00N 34°09' E 134°44'919.0
2017-Dec-07 16:31N 34°16' E 134°37'918.0
2017-Dec-07 16:01N 34°19' E 134°27'  
Track history (hours):
 
Tides and Currents Weather Stations Pressure Air Temp Water Temp Dewpoint Dewpoint Depression Visibility Wind Speed Wind Dir Waves Ship Positions

No2 Toyomaru

Last reported at 2017-Dec-17 15:34 UTC. Time now 2017-Dec-17 21:51 UTC.
Position N 34°19' E 137°57'.

Length 124 m; draft 6.5 m.

Type: Cargo ship. MMSI: 431000859.

Date/timePositionNaut miles runAvg speedWind from/ knotsBaromVisibWave heightAir tempDewpointWater temp
2017-Dec-17 15:34N 34°19' E 137°57'116.8
2017-Dec-17 15:30N 34°20' E 137°58'916.3
2017-Dec-17 14:58N 34°23' E 138°08'715.4
2017-Dec-17 14:30N 34°25' E 138°16'714.6
2017-Dec-17 14:00N 34°27' E 138°25'814.5
2017-Dec-17 13:29N 34°28' E 138°34'815.2
2017-Dec-17 12:57N 34°30' E 138°43'715.6
2017-Dec-17 12:30N 34°31' E 138°52'815.2
2017-Dec-17 11:59N 34°34' E 139°01'916.2
2017-Dec-17 11:27N 34°40' E 139°08'815.8
2017-Dec-17 10:57N 34°45' E 139°15'816.3
2017-Dec-17 10:29N 34°51' E 139°22'817.5
2017-Dec-17 10:01N 34°56' E 139°30'917.3
2017-Dec-17 09:31N 35°02' E 139°37'917.6
2017-Dec-17 09:01N 35°09' E 139°44'714.4
2017-Dec-17 08:30N 35°16' E 139°46'713.6
2017-Dec-17 08:01N 35°22' E 139°42'917.2
2017-Dec-17 07:30N 35°28' E 139°50'917.8
2017-Dec-17 07:01N 35°33' E 139°59'713.1
2017-Dec-17 06:30N 35°36' E 140°06'0 0.5
2017-Dec-17 06:00N 35°36' E 140°06'0 0.0
2017-Dec-17 05:30N 35°36' E 140°06'1 2.4
2017-Dec-17 05:00N 35°37' E 140°05'0 0.3
2017-Dec-17 04:30N 35°37' E 140°05'0 0.0
2017-Dec-17 03:58N 35°37' E 140°05'0 0.0
2017-Dec-17 03:28N 35°37' E 140°05'0 0.0
2017-Dec-17 02:58N 35°37' E 140°05'0 0.0
2017-Dec-17 02:28N 35°37' E 140°05'0 0.0
2017-Dec-17 01:58N 35°37' E 140°05'0 0.0
2017-Dec-17 01:28N 35°37' E 140°05'0 0.0
2017-Dec-17 00:58N 35°37' E 140°05'0 0.0
2017-Dec-17 00:28N 35°37' E 140°05'0 0.0
2017-Dec-16 23:58N 35°37' E 140°05'0 0.0
2017-Dec-16 23:30N 35°37' E 140°05'1 2.6
2017-Dec-16 23:00N 35°35' E 140°06'1 1.4
2017-Dec-16 22:30N 35°36' E 140°06'0 0.0
2017-Dec-16 22:00N 35°36' E 140°06'0 0.0
2017-Dec-16 21:30N 35°36' E 140°06'0 0.0
2017-Dec-16 21:00N 35°36' E 140°06'0 0.5
2017-Dec-16 20:31N 35°36' E 140°06'4 8.3
2017-Dec-16 20:01N 35°34' E 140°01'1 2.4
2017-Dec-16 19:26N 35°35' E 139°60'0 0.1
2017-Dec-16 18:59N 35°35' E 139°60'0 0.0
2017-Dec-16 18:29N 35°35' E 139°60'0 0.0
2017-Dec-16 17:59N 35°35' E 139°60'0 0.1
2017-Dec-16 17:29N 35°35' E 139°60'0 0.0
2017-Dec-16 16:59N 35°35' E 139°60'0 0.0
2017-Dec-16 16:29N 35°35' E 139°60'0 0.0
2017-Dec-16 15:59N 35°35' E 139°60'0 0.0
2017-Dec-16 15:29N 35°35' E 139°60'0 0.0
2017-Dec-16 14:59N 35°35' E 139°60'0 0.0
2017-Dec-16 14:29N 35°35' E 139°60'0 0.0
2017-Dec-16 13:59N 35°35' E 139°60'0 0.0
2017-Dec-16 13:29N 35°35' E 139°60'0 0.0
2017-Dec-16 12:59N 35°35' E 139°60'0 0.0
2017-Dec-16 12:29N 35°35' E 139°60'0 0.0
2017-Dec-16 11:59N 35°35' E 139°60'0 0.2
2017-Dec-16 11:30N 35°35' E 139°60'612.3
2017-Dec-16 11:01N 35°31' E 139°54'816.3
2017-Dec-16 10:31N 35°25' E 139°47'713.0
2017-Dec-16 10:00N 35°19' E 139°44'612.3
2017-Dec-16 09:31N 35°13' E 139°47'816.4
2017-Dec-16 09:00N 35°05' E 139°43'918.5
2017-Dec-16 08:30N 34°59' E 139°34'918.6
2017-Dec-16 08:01N 34°53' E 139°26'919.0
2017-Dec-16 07:31N 34°47' E 139°17'918.5
2017-Dec-16 07:01N 34°41' E 139°09'917.2
2017-Dec-16 06:31N 34°35' E 139°01'917.3
2017-Dec-16 06:01N 34°31' E 138°52'1018.6
2017-Dec-16 05:29N 34°29' E 138°40'918.3
2017-Dec-16 04:59N 34°27' E 138°30'918.1
2017-Dec-16 04:30N 34°25' E 138°19'917.6
2017-Dec-16 04:00N 34°23' E 138°09'1017.7
2017-Dec-16 03:27N 34°19' E 137°58'13616.3
2017-Dec-15 19:05N 33°29' E 135°25'116.1
2017-Dec-15 19:00N 33°30' E 135°24'916.3
2017-Dec-15 18:26N 33°35' E 135°15'1317.9
2017-Dec-15 17:40N 33°46' E 135°05'417.5
2017-Dec-15 17:25N 33°49' E 135°02'717.9
2017-Dec-15 17:00N 33°55' E 134°56'917.9
2017-Dec-15 16:30N 34°02' E 134°50'1017.9
2017-Dec-15 15:58N 34°09' E 134°42'817.5
2017-Dec-15 15:30N 34°16' E 134°36'918.0
2017-Dec-15 15:00N 34°20' E 134°26'918.3
2017-Dec-15 14:30N 34°23' E 134°16'7716.0
2017-Dec-15 09:42N 34°07' E 132°45'418.3
2017-Dec-15 09:30N 34°06' E 132°41'918.0
2017-Dec-15 09:01N 34°02' E 132°32'916.5
2017-Dec-15 08:28N 34°08' E 132°24'816.5
2017-Dec-15 08:01N 34°15' E 132°22'814.7
2017-Dec-15 07:29N 34°21' E 132°28'1 1.2
2017-Dec-15 07:01N 34°21' E 132°29'0 0.0
2017-Dec-15 06:28N 34°21' E 132°29'0 0.0
2017-Dec-15 05:55N 34°21' E 132°29'0 0.0
2017-Dec-15 05:28N 34°21' E 132°29'0 0.0
2017-Dec-15 04:58N 34°21' E 132°29'0 0.0
2017-Dec-15 04:28N 34°21' E 132°29'0 0.0
2017-Dec-15 03:58N 34°21' E 132°29'6 4.0
2017-Dec-15 02:30N 34°21' E 132°22'6 4.2
2017-Dec-15 01:00N 34°21' E 132°30'1 2.0
2017-Dec-15 00:29N 34°21' E 132°31'0 0.0
2017-Dec-14 18:29N 34°21' E 132°31'0 0.0
2017-Dec-14 17:59N 34°21' E 132°31'0 0.0
2017-Dec-14 17:29N 34°21' E 132°31'0 0.0
2017-Dec-14 16:59N 34°21' E 132°31'0 0.0
2017-Dec-14 16:29N 34°21' E 132°31'1 2.8
2017-Dec-14 16:01N 34°21' E 132°29'1414.0
2017-Dec-14 15:00N 34°08' E 132°22'1115.1
2017-Dec-14 14:17N 34°02' E 132°34'518.9
2017-Dec-14 14:00N 34°05' E 132°39'6416.7
2017-Dec-14 10:09N 34°25' E 133°53'12 3.0
2017-Dec-14 05:57N 34°26' E 134°08'817.9
2017-Dec-14 05:29N 34°23' E 134°18'817.3
2017-Dec-14 05:00N 34°19' E 134°26'917.5
2017-Dec-14 04:30N 34°16' E 134°36'815.1
2017-Dec-14 03:57N 34°10' E 134°43'816.5
2017-Dec-14 03:27N 34°03' E 134°49'816.8
2017-Dec-14 02:58N 33°57' E 134°56'816.2
2017-Dec-14 02:30N 33°51' E 135°02'14315.5
2017-Dec-13 17:16N 34°18' E 137°52'516.4
2017-Dec-13 16:58N 34°20' E 137°57'816.2
2017-Dec-13 16:29N 34°22' E 138°06'815.6
2017-Dec-13 15:58N 34°25' E 138°15'714.6
2017-Dec-13 15:30N 34°26' E 138°23'714.0
2017-Dec-13 15:00N 34°28' E 138°32'714.0
2017-Dec-13 14:29N 34°29' E 138°40'1015.0
2017-Dec-13 13:49N 34°31' E 138°52'516.0
2017-Dec-13 13:30N 34°32' E 138°58'816.3
2017-Dec-13 13:00N 34°37' E 139°06'917.2
2017-Dec-13 12:28N 34°44' E 139°13'1416.2
2017-Dec-13 11:35N 34°54' E 139°26'216.5
2017-Dec-13 11:28N 34°55' E 139°28'816.5
2017-Dec-13 11:00N 35°00' E 139°35'917.9
2017-Dec-13 10:30N 35°06' E 139°43'815.8
2017-Dec-13 10:01N 35°14' E 139°46'612.4
2017-Dec-13 09:30N 35°19' E 139°43'612.9
2017-Dec-13 09:00N 35°25' E 139°45'918.3
2017-Dec-13 08:31N 35°31' E 139°54'917.4
2017-Dec-13 08:01N 35°35' E 140°03'3 5.0
2017-Dec-13 07:30N 35°36' E 140°06'0 0.0
2017-Dec-13 07:00N 35°36' E 140°06'0 0.0
2017-Dec-13 06:30N 35°36' E 140°06'1 2.6
2017-Dec-13 06:01N 35°37' E 140°05'0 0.0
2017-Dec-13 05:28N 35°37' E 140°05'0 0.0
2017-Dec-13 04:58N 35°37' E 140°05'0 0.0
2017-Dec-13 04:28N 35°37' E 140°05'0 0.0
2017-Dec-13 03:58N 35°37' E 140°05'0 0.0
2017-Dec-13 03:28N 35°37' E 140°05'0 0.0
2017-Dec-13 02:58N 35°37' E 140°05'0 0.0
2017-Dec-13 02:28N 35°37' E 140°05'0 0.0
2017-Dec-13 01:58N 35°37' E 140°05'0 0.0
2017-Dec-13 01:28N 35°37' E 140°05'0 0.0
2017-Dec-13 00:58N 35°37' E 140°05'0 0.0
2017-Dec-13 00:28N 35°37' E 140°05'0 0.0
2017-Dec-12 23:58N 35°37' E 140°05'0 0.0
2017-Dec-12 23:28N 35°37' E 140°05'1 2.3
2017-Dec-12 23:00N 35°36' E 140°05'1 1.9
2017-Dec-12 22:30N 35°36' E 140°06'0 0.0
2017-Dec-12 22:00N 35°36' E 140°06'0 0.0
2017-Dec-12 21:30N 35°36' E 140°06'0 0.0
2017-Dec-12 21:00N 35°36' E 140°06'0 0.3
2017-Dec-12 20:30N 35°36' E 140°06'5 9.7
2017-Dec-12 20:00N 35°34' E 140°01'816.9
2017-Dec-12 19:30N 35°29' E 139°52'815.0
2017-Dec-12 19:00N 35°23' E 139°46'611.1
2017-Dec-12 18:31N 35°18' E 139°45'611.9
2017-Dec-12 18:00N 35°12' E 139°47'816.2
2017-Dec-12 17:30N 35°04' E 139°46'917.4
2017-Dec-12 16:59N 34°57' E 139°39'5 9.6
2017-Dec-12 16:30N 34°55' E 139°34'3 5.2
2017-Dec-12 15:59N 34°53' E 139°33'918.7
2017-Dec-12 15:30N 34°50' E 139°22'918.5
2017-Dec-12 15:00N 34°44' E 139°14'1019.0
2017-Dec-12 14:30N 34°36' E 139°06'919.0
2017-Dec-12 14:00N 34°30' E 138°58'1019.0
2017-Dec-12 13:30N 34°31' E 138°46'1019.2
2017-Dec-12 12:58N 34°31' E 138°33'918.4
2017-Dec-12 12:30N 34°31' E 138°23'918.2
2017-Dec-12 12:00N 34°32' E 138°12'1018.8
2017-Dec-12 11:28N 34°32' E 138°00'918.6
2017-Dec-12 11:00N 34°32' E 137°49'2218.5
2017-Dec-12 09:50N 34°32' E 137°23'618.7
2017-Dec-12 09:30N 34°32' E 137°16'1018.5
2017-Dec-12 08:56N 34°32' E 137°03'613.7
2017-Dec-12 08:30N 34°36' E 136°58'918.0
2017-Dec-12 08:00N 34°45' E 136°59'714.5
2017-Dec-12 07:30N 34°52' E 136°58'2 3.8
2017-Dec-12 07:00N 34°54' E 136°59'0 0.0
2017-Dec-12 06:28N 34°54' E 136°59'0 0.0
2017-Dec-12 05:58N 34°54' E 136°59'0 0.0
2017-Dec-12 05:28N 34°54' E 136°59'0 0.0
2017-Dec-12 04:58N 34°54' E 136°59'0 0.0
2017-Dec-12 04:28N 34°54' E 136°59'0 0.0
2017-Dec-12 03:58N 34°54' E 136°59'1 1.2
2017-Dec-12 03:30N 34°54' E 136°58'612.2
2017-Dec-12 03:01N 34°48' E 136°57'816.0
2017-Dec-12 02:30N 34°40' E 136°59'711.2
2017-Dec-12 01:50N 34°33' E 137°02'2817.2
2017-Dec-12 00:11N 34°07' E 136°48'417.3
2017-Dec-11 23:59N 34°04' E 136°44'7515.4
2017-Dec-11 19:08N 33°30' E 135°24'2018.0
2017-Dec-11 18:01N 33°44' E 135°08'118.7
2017-Dec-11 17:59N 33°44' E 135°07'918.5
2017-Dec-11 17:30N 33°51' E 135°00'918.3
2017-Dec-11 17:00N 33°58' E 134°53'918.2
2017-Dec-11 16:30N 34°06' E 134°47'917.9
2017-Dec-11 16:00N 34°13' E 134°40'816.9
2017-Dec-11 15:30N 34°17' E 134°32'918.2
2017-Dec-11 15:00N 34°21' E 134°22'1118.5
2017-Dec-11 14:25N 34°25' E 134°10'7415.7
2017-Dec-11 09:45N 34°06' E 132°44'417.8
2017-Dec-11 09:31N 34°04' E 132°39'815.1
2017-Dec-11 08:58N 34°04' E 132°29'817.8
2017-Dec-11 08:30N 34°10' E 132°22'816.7
2017-Dec-11 08:00N 34°18' E 132°24'510.3
2017-Dec-11 07:30N 34°21' E 132°29'0 0.0
2017-Dec-11 06:59N 34°21' E 132°29'0 0.0
2017-Dec-11 06:29N 34°21' E 132°29'0 0.0
2017-Dec-11 05:59N 34°21' E 132°29'0 0.0
2017-Dec-11 05:29N 34°21' E 132°29'0 0.0
2017-Dec-11 04:59N 34°21' E 132°29'0 0.0
2017-Dec-11 04:29N 34°21' E 132°29'0 0.0
2017-Dec-11 03:59N 34°21' E 132°29'3 5.6
2017-Dec-11 03:31N 34°20' E 132°26'4 7.5
2017-Dec-11 03:00N 34°21' E 132°22'0 0.0
2017-Dec-11 02:28N 34°21' E 132°22'0 0.0
2017-Dec-11 02:00N 34°21' E 132°22'3 6.9
2017-Dec-11 01:30N 34°20' E 132°26'4 8.8
2017-Dec-11 01:01N 34°21' E 132°31'0 0.0
2017-Dec-11 00:29N 34°21' E 132°31'0 0.0
2017-Dec-10 23:59N 34°21' E 132°31'0 0.0
2017-Dec-10 23:29N 34°21' E 132°31'0 0.0
2017-Dec-10 22:59N 34°21' E 132°31'0 0.0
2017-Dec-10 22:29N 34°21' E 132°31'0 0.0
2017-Dec-10 21:56N 34°21' E 132°31'0 0.0
2017-Dec-10 21:29N 34°21' E 132°31'0 0.0
2017-Dec-10 20:59N 34°21' E 132°31'0 0.0
2017-Dec-10 20:29N 34°21' E 132°31'0 0.0
2017-Dec-10 19:59N 34°21' E 132°31'0 0.0
2017-Dec-10 19:29N 34°21' E 132°31'0 0.0
2017-Dec-10 18:56N 34°21' E 132°31'0 0.0
2017-Dec-10 18:29N 34°21' E 132°31'0 0.0
2017-Dec-10 17:59N 34°21' E 132°31'0 0.0
2017-Dec-10 17:29N 34°21' E 132°31'0 0.0
2017-Dec-10 16:59N 34°21' E 132°31'0 0.3
2017-Dec-10 16:30N 34°21' E 132°31'611.1
2017-Dec-10 16:00N 34°19' E 132°25'917.2
2017-Dec-10 15:31N 34°10' E 132°21'916.9
2017-Dec-10 14:58N 34°04' E 132°29'614.0
2017-Dec-10 14:31N 34°04' E 132°37'917.2
2017-Dec-10 14:00N 34°08' E 132°46'917.3
2017-Dec-10 13:28N 34°10' E 132°57'50 9.9
2017-Dec-10 08:24N 34°25' E 133°55'3 1.9
2017-Dec-10 06:55N 34°26' E 133°58'914.9
2017-Dec-10 06:21N 34°26' E 134°09'617.9
2017-Dec-10 06:00N 34°24' E 134°16'918.1
2017-Dec-10 05:30N 34°20' E 134°26'918.1
2017-Dec-10 05:00N 34°16' E 134°36'1017.8
2017-Dec-10 04:26N 34°09' E 134°44'818.1
2017-Dec-10 04:00N 34°03' E 134°50'918.1
2017-Dec-10 03:30N 33°56' E 134°57'14015.6
2017-Dec-09 18:31N 34°16' E 137°44'617.8
2017-Dec-09 18:11N 34°18' E 137°51'317.3
2017-Dec-09 18:00N 34°19' E 137°55'917.1
2017-Dec-09 17:30N 34°22' E 138°04'816.3
2017-Dec-09 17:00N 34°25' E 138°14'815.6
2017-Dec-09 16:29N 34°27' E 138°23'815.2
2017-Dec-09 15:57N 34°28' E 138°33'715.1
2017-Dec-09 15:28N 34°29' E 138°41'814.7
2017-Dec-09 14:54N 34°31' E 138°51'614.1
2017-Dec-09 14:30N 34°32' E 138°58'915.3
2017-Dec-09 13:57N 34°38' E 139°06'915.4
2017-Dec-09 13:22N 34°44' E 139°14'616.0
2017-Dec-09 13:00N 34°48' E 139°19'815.9
2017-Dec-09 12:29N 34°54' E 139°26'817.1
2017-Dec-09 12:00N 34°59' E 139°33'816.9
2017-Dec-09 11:30N 35°05' E 139°41'816.7
2017-Dec-09 11:00N 35°12' E 139°46'612.2
2017-Dec-09 10:31N 35°18' E 139°44'714.0
2017-Dec-09 10:00N 35°25' E 139°44'917.5
2017-Dec-09 09:30N 35°30' E 139°53'917.2
2017-Dec-09 09:01N 35°35' E 140°02'4 7.3
2017-Dec-09 08:31N 35°36' E 140°06'0 0.0
2017-Dec-09 08:01N 35°36' E 140°06'0 0.0
2017-Dec-09 07:30N 35°36' E 140°06'0 0.0
2017-Dec-09 07:00N 35°36' E 140°06'0 0.0
2017-Dec-09 06:30N 35°36' E 140°06'1 1.2
2017-Dec-09 06:00N 35°35' E 140°06'1 2.6
2017-Dec-09 05:30N 35°37' E 140°05'0 0.0
2017-Dec-09 05:00N 35°37' E 140°05'0 0.0
2017-Dec-09 04:30N 35°37' E 140°05'0 0.0
2017-Dec-09 04:00N 35°37' E 140°05'0 0.0
2017-Dec-09 03:30N 35°37' E 140°05'0 0.0
2017-Dec-09 03:00N 35°37' E 140°05'0 0.0
2017-Dec-09 02:30N 35°37' E 140°05'0 0.0
2017-Dec-09 02:00N 35°37' E 140°05'0 0.0
2017-Dec-09 01:30N 35°37' E 140°05'0 0.0
2017-Dec-09 01:00N 35°37' E 140°05'0 0.0
2017-Dec-09 00:30N 35°37' E 140°05'0 0.0
2017-Dec-09 00:00N 35°37' E 140°05'0 0.0
2017-Dec-08 23:30N 35°37' E 140°05'1 2.2
2017-Dec-08 23:01N 35°36' E 140°05'1 1.9
2017-Dec-08 22:30N 35°36' E 140°06'0 0.0
2017-Dec-08 22:00N 35°36' E 140°06'0 0.0
2017-Dec-08 21:30N 35°36' E 140°06'0 0.0
2017-Dec-08 21:00N 35°36' E 140°06'0 0.2
2017-Dec-08 20:30N 35°36' E 140°06'5 9.2
2017-Dec-08 20:01N 35°34' E 140°01'816.2
2017-Dec-08 19:30N 35°29' E 139°53'815.4
2017-Dec-08 19:00N 35°24' E 139°46'612.2
2017-Dec-08 18:30N 35°18' E 139°45'612.4
2017-Dec-08 18:01N 35°12' E 139°47'816.3
2017-Dec-08 17:30N 35°04' E 139°44'816.1
2017-Dec-08 17:00N 34°57' E 139°39'713.6
2017-Dec-08 16:30N 34°56' E 139°31'918.2
2017-Dec-08 16:00N 34°51' E 139°22'918.3
2017-Dec-08 15:30N 34°45' E 139°14'918.2
2017-Dec-08 15:00N 34°39' E 139°05'918.1
2017-Dec-08 14:30N 34°33' E 138°57'917.0
2017-Dec-08 14:00N 34°32' E 138°47'917.9
2017-Dec-08 13:29N 34°32' E 138°35'918.6
2017-Dec-08 12:58N 34°32' E 138°24'917.9
2017-Dec-08 12:28N 34°32' E 138°13'918.1
2017-Dec-08 11:59N 34°32' E 138°02'917.6
2017-Dec-08 11:29N 34°32' E 137°52'2317.8
2017-Dec-08 10:12N 34°32' E 137°24'318.0
2017-Dec-08 10:00N 34°32' E 137°20'917.5
2017-Dec-08 09:30N 34°32' E 137°09'714.3
2017-Dec-08 09:00N 34°34' E 137°00'510.7
2017-Dec-08 08:30N 34°39' E 136°58'817.0
2017-Dec-08 08:00N 34°47' E 136°58'713.1
2017-Dec-08 07:30N 34°53' E 136°58'1 1.2
2017-Dec-08 06:59N 34°54' E 136°59'0 0.0
2017-Dec-08 06:29N 34°54' E 136°59'0 0.0
2017-Dec-08 05:56N 34°54' E 136°59'0 0.0
2017-Dec-08 05:29N 34°54' E 136°59'0 0.0
2017-Dec-08 04:59N 34°54' E 136°59'0 0.0
2017-Dec-08 04:29N 34°54' E 136°59'2 5.2
2017-Dec-08 04:00N 34°52' E 136°57'714.3
2017-Dec-08 03:30N 34°45' E 136°59'815.6
2017-Dec-08 02:58N 34°36' E 136°58'3014.7
2017-Dec-08 00:53N 34°07' E 136°48'816.4
2017-Dec-08 00:25N 34°02' E 136°41'7115.7
2017-Dec-07 19:53N 33°29' E 135°24'816.4
2017-Dec-07 19:24N 33°34' E 135°17'1618.3
2017-Dec-07 18:32N 33°47' E 135°05'117.9
2017-Dec-07 18:30N 33°47' E 135°05'918.2
2017-Dec-07 18:00N 33°54' E 134°58'918.5
2017-Dec-07 17:30N 34°01' E 134°51'918.6
2017-Dec-07 17:00N 34°09' E 134°44'919.0
2017-Dec-07 16:31N 34°16' E 134°37'918.0
2017-Dec-07 16:01N 34°19' E 134°27'  

Dump ship's entire track history